ROYN/OGN METAR and TAF weather

Enter ICAO airport designator
Station Type Date Time Source
ROYN METAR 2020/08/15 16:00 UTC NOAA

ROYN 151600Z AUTO 15004KT 9999 FEW019 28/26 Q1010


Station Type Date Time Source
ROYN Decoded METAR 2020/08/15 16:00 UTC NOAA

Yonaguni Airport, Japan (ROYN) 24-28N 122-59E 19M
Aug 15, 2020 - 12:00 PM EDT / 2020.08.15 1600 UTC
Wind: from the SSE (150 degrees) at 5 MPH (4 KT):0
Visibility: greater than 7 mile(s):0
Sky conditions: mostly clear
Temperature: 82 F (28 C)
Dew Point: 78 F (26 C)
Relative Humidity: 88%
Pressure (altimeter): 29.83 in. Hg (1010 hPa)
ob: ROYN 151600Z AUTO 15004KT 9999 FEW019 28/26 Q1010
cycle: 16

Station Type Date Time Source
ROYN TAF UTC NOAA

Error!

Example: see airport list